Terminal Aerodrome Forecast
Issued by NWS

Home | Current Version | Previous Version | Text Only | Print | Product List | Glossary On
Versions: 1 2 3 4 5 6 7 8 9 10 11 12 13 14 15 16 17 18 19 20 21 22 23 24 25
000
FTUS41 KAKQ 251700 RRA
TAFPHF
TAF
KPHF 251744Z 2518/2618 21005KT P6SM SCT250
     FM260500 14004KT P6SM VCSH BKN150 OVC200
     FM261200 10005KT 6SM -RA BKN030 OVC070=

USA.gov is the U.S. government's official web portal to all federal, state and local government web resources and services.